sensor_id;sensor_type;location;lat;lon;timestamp;pressure;altitude;pressure_sealevel;temperature;humidity
29315;BME280;16320;53.954;9.506;2023-07-13T00:01:19;101061.69;;;16.44;100.00
29315;BME280;16320;53.954;9.506;2023-07-13T00:04:25;101052.06;;;16.43;100.00
29315;BME280;16320;53.954;9.506;2023-07-13T00:07:30;101053.13;;;16.40;100.00
29315;BME280;16320;53.954;9.506;2023-07-13T00:10:40;101048.66;;;16.41;100.00
29315;BME280;16320;53.954;9.506;2023-07-13T00:13:45;101052.28;;;16.40;100.00
29315;BME280;16320;53.954;9.506;2023-07-13T00:16:49;101054.19;;;16.38;100.00
29315;BME280;16320;53.954;9.506;2023-07-13T00:19:55;101052.50;;;16.37;100.00
29315;BME280;16320;53.954;9.506;2023-07-13T00:23:01;101043.69;;;16.36;100.00
29315;BME280;16320;53.954;9.506;2023-07-13T00:26:09;101039.97;;;16.39;100.00
29315;BME280;16320;53.954;9.506;2023-07-13T00:29:14;101040.84;;;16.39;100.00
29315;BME280;16320;53.954;9.506;2023-07-13T00:32:20;101047.91;;;16.39;100.00
29315;BME280;16320;53.954;9.506;2023-07-13T00:35:25;101053.72;;;16.44;100.00
29315;BME280;16320;53.954;9.506;2023-07-13T00:38:33;101039.53;;;16.45;100.00
29315;BME280;16320;53.954;9.506;2023-07-13T00:41:38;101050.13;;;16.45;100.00
29315;BME280;16320;53.954;9.506;2023-07-13T00:48:21;101058.31;;;16.42;100.00
29315;BME280;16320;53.954;9.506;2023-07-13T00:51:50;101061.91;;;16.41;100.00
29315;BME280;16320;53.954;9.506;2023-07-13T00:54:58;101055.13;;;16.37;100.00
29315;BME280;16320;53.954;9.506;2023-07-13T00:58:06;101060.22;;;16.40;100.00
29315;BME280;16320;53.954;9.506;2023-07-13T01:01:11;101061.16;;;16.39;100.00
29315;BME280;16320;53.954;9.506;2023-07-13T01:04:18;101063.94;;;16.37;100.00
29315;BME280;16320;53.954;9.506;2023-07-13T01:07:24;101070.31;;;16.35;100.00
29315;BME280;16320;53.954;9.506;2023-07-13T01:10:57;101060.75;;;16.32;100.00
29315;BME280;16320;53.954;9.506;2023-07-13T01:14:03;101065.22;;;16.32;100.00
29315;BME280;16320;53.954;9.506;2023-07-13T01:17:11;101056.75;;;16.26;100.00
29315;BME280;16320;53.954;9.506;2023-07-13T01:20:16;101053.34;;;16.24;100.00
29315;BME280;16320;53.954;9.506;2023-07-13T01:23:23;101060.34;;;16.25;100.00
29315;BME280;16320;53.954;9.506;2023-07-13T01:26:28;101057.91;;;16.22;100.00
29315;BME280;16320;53.954;9.506;2023-07-13T01:29:37;101060.66;;;16.21;100.00
29315;BME280;16320;53.954;9.506;2023-07-13T01:32:46;101060.88;;;16.18;100.00
29315;BME280;16320;53.954;9.506;2023-07-13T01:35:51;101061.84;;;16.17;100.00
29315;BME280;16320;53.954;9.506;2023-07-13T01:38:56;101066.06;;;16.19;100.00
29315;BME280;16320;53.954;9.506;2023-07-13T01:42:01;101068.00;;;16.17;100.00
29315;BME280;16320;53.954;9.506;2023-07-13T01:45:06;101074.34;;;16.15;100.00
29315;BME280;16320;53.954;9.506;2023-07-13T01:48:12;101073.50;;;16.14;100.00
29315;BME280;16320;53.954;9.506;2023-07-13T01:51:19;101077.97;;;16.14;100.00
29315;BME280;16320;53.954;9.506;2023-07-13T01:54:24;101078.81;;;16.14;100.00
29315;BME280;16320;53.954;9.506;2023-07-13T01:57:28;101072.66;;;16.14;100.00
29315;BME280;16320;53.954;9.506;2023-07-13T02:00:35;101074.56;;;16.11;100.00
29315;BME280;16320;53.954;9.506;2023-07-13T02:03:40;101065.66;;;16.13;100.00
29315;BME280;16320;53.954;9.506;2023-07-13T02:06:46;101067.47;;;16.12;100.00
29315;BME280;16320;53.954;9.506;2023-07-13T02:09:50;101073.72;;;16.11;100.00
29315;BME280;16320;53.954;9.506;2023-07-13T02:12:54;101072.00;;;16.10;100.00
29315;BME280;16320;53.954;9.506;2023-07-13T02:15:59;101078.06;;;16.12;100.00
29315;BME280;16320;53.954;9.506;2023-07-13T02:19:04;101079.84;;;16.11;100.00
29315;BME280;16320;53.954;9.506;2023-07-13T02:22:10;101085.03;;;16.13;100.00
29315;BME280;16320;53.954;9.506;2023-07-13T02:25:15;101082.41;;;16.13;100.00
29315;BME280;16320;53.954;9.506;2023-07-13T02:28:19;101079.84;;;16.11;100.00
29315;BME280;16320;53.954;9.506;2023-07-13T02:31:24;101081.66;;;16.11;100.00
29315;BME280;16320;53.954;9.506;2023-07-13T02:34:28;101079.22;;;16.08;100.00
29315;BME280;16320;53.954;9.506;2023-07-13T02:37:36;101077.75;;;16.04;100.00
29315;BME280;16320;53.954;9.506;2023-07-13T02:40:40;101085.69;;;16.04;100.00
29315;BME280;16320;53.954;9.506;2023-07-13T02:43:45;101082.41;;;16.00;100.00
29315;BME280;16320;53.954;9.506;2023-07-13T02:46:50;101081.56;;;16.00;100.00
29315;BME280;16320;53.954;9.506;2023-07-13T02:49:54;101075.53;;;15.98;100.00
29315;BME280;16320;53.954;9.506;2023-07-13T02:52:59;101080.09;;;15.96;100.00
29315;BME280;16320;53.954;9.506;2023-07-13T02:56:05;101085.59;;;15.92;100.00
29315;BME280;16320;53.954;9.506;2023-07-13T02:59:09;101074.13;;;15.92;100.00
29315;BME280;16320;53.954;9.506;2023-07-13T03:02:15;101078.59;;;15.91;100.00
29315;BME280;16320;53.954;9.506;2023-07-13T03:05:20;101076.88;;;15.90;100.00
29315;BME280;16320;53.954;9.506;2023-07-13T03:08:26;101069.06;;;15.89;100.00
29315;BME280;16320;53.954;9.506;2023-07-13T03:11:31;101069.06;;;15.89;100.00
29315;BME280;16320;53.954;9.506;2023-07-13T03:14:35;101073.50;;;15.88;100.00
29315;BME280;16320;53.954;9.506;2023-07-13T03:17:40;101073.59;;;15.87;100.00
29315;BME280;16320;53.954;9.506;2023-07-13T03:20:44;101062.16;;;15.86;100.00
29315;BME280;16320;53.954;9.506;2023-07-13T03:23:49;101054.22;;;15.86;100.00
29315;BME280;16320;53.954;9.506;2023-07-13T03:26:53;101051.47;;;15.88;100.00
29315;BME280;16320;53.954;9.506;2023-07-13T03:29:57;101051.47;;;15.88;100.00
29315;BME280;16320;53.954;9.506;2023-07-13T03:33:02;101041.72;;;15.88;100.00
29315;BME280;16320;53.954;9.506;2023-07-13T03:36:20;101040.97;;;15.86;100.00
29315;BME280;16320;53.954;9.506;2023-07-13T03:39:25;101035.56;;;15.88;100.00
29315;BME280;16320;53.954;9.506;2023-07-13T03:42:30;101039.94;;;15.89;100.00
29315;BME280;16320;53.954;9.506;2023-07-13T03:45:37;101039.94;;;15.89;100.00
29315;BME280;16320;53.954;9.506;2023-07-13T03:48:43;101044.25;;;15.90;100.00
29315;BME280;16320;53.954;9.506;2023-07-13T03:51:48;101047.00;;;15.88;100.00
29315;BME280;16320;53.954;9.506;2023-07-13T03:54:57;101053.28;;;15.87;100.00
29315;BME280;16320;53.954;9.506;2023-07-13T03:58:34;101048.81;;;15.88;100.00
29315;BME280;16320;53.954;9.506;2023-07-13T04:01:40;101046.16;;;15.88;100.00
29315;BME280;16320;53.954;9.506;2023-07-13T04:04:45;101055.06;;;15.87;100.00
29315;BME280;16320;53.954;9.506;2023-07-13T04:07:49;101060.97;;;15.90;100.00
29315;BME280;16320;53.954;9.506;2023-07-13T04:10:55;101059.94;;;15.93;100.00
29315;BME280;16320;53.954;9.506;2023-07-13T04:14:00;101059.94;;;15.93;100.00
29315;BME280;16320;53.954;9.506;2023-07-13T04:17:05;101050.84;;;15.97;100.00
29315;BME280;16320;53.954;9.506;2023-07-13T04:20:10;101058.34;;;16.03;100.00
29315;BME280;16320;53.954;9.506;2023-07-13T04:23:16;101053.81;;;16.05;100.00
29315;BME280;16320;53.954;9.506;2023-07-13T04:26:22;101055.38;;;16.08;100.00
29315;BME280;16320;53.954;9.506;2023-07-13T04:29:29;101045.75;;;16.07;100.00
29315;BME280;16320;53.954;9.506;2023-07-13T04:32:34;101045.50;;;16.10;100.00
29315;BME280;16320;53.954;9.506;2023-07-13T04:35:39;101038.22;;;16.14;100.00
29315;BME280;16320;53.954;9.506;2023-07-13T04:38:44;101040.66;;;16.17;100.00
29315;BME280;16320;53.954;9.506;2023-07-13T04:41:48;101039.06;;;16.14;100.00
29315;BME280;16320;53.954;9.506;2023-07-13T04:44:53;101045.97;;;16.17;100.00
29315;BME280;16320;53.954;9.506;2023-07-13T04:47:57;101036.19;;;16.17;100.00
29315;BME280;16320;53.954;9.506;2023-07-13T04:51:02;101044.25;;;16.16;100.00
29315;BME280;16320;53.954;9.506;2023-07-13T04:54:08;101039.16;;;16.13;100.00
29315;BME280;16320;53.954;9.506;2023-07-13T04:57:12;101039.16;;;16.13;100.00
29315;BME280;16320;53.954;9.506;2023-07-13T05:00:17;101043.41;;;16.15;100.00
29315;BME280;16320;53.954;9.506;2023-07-13T05:03:21;101045.09;;;16.16;100.00
29315;BME280;16320;53.954;9.506;2023-07-13T05:06:27;101057.41;;;16.17;100.00
29315;BME280;16320;53.954;9.506;2023-07-13T05:09:32;101060.97;;;16.16;100.00
29315;BME280;16320;53.954;9.506;2023-07-13T05:12:37;101074.34;;;16.15;100.00
29315;BME280;16320;53.954;9.506;2023-07-13T05:15:41;101082.19;;;16.16;100.00
29315;BME280;16320;53.954;9.506;2023-07-13T05:18:45;101080.31;;;16.18;100.00
29315;BME280;16320;53.954;9.506;2023-07-13T05:21:50;101087.91;;;16.23;100.00
29315;BME280;16320;53.954;9.506;2023-07-13T05:24:55;101094.91;;;16.24;100.00
29315;BME280;16320;53.954;9.506;2023-07-13T05:27:59;101094.06;;;16.23;100.00
29315;BME280;16320;53.954;9.506;2023-07-13T05:31:04;101097.44;;;16.25;100.00
29315;BME280;16320;53.954;9.506;2023-07-13T05:34:11;101095.31;;;16.31;100.00
29315;BME280;16320;53.954;9.506;2023-07-13T05:37:16;101093.41;;;16.33;100.00
29315;BME280;16320;53.954;9.506;2023-07-13T05:40:20;101094.16;;;16.35;100.00
29315;BME280;16320;53.954;9.506;2023-07-13T05:43:25;101097.03;;;16.32;100.00
29315;BME280;16320;53.954;9.506;2023-07-13T05:46:30;101095.31;;;16.31;100.00
29315;BME280;16320;53.954;9.506;2023-07-13T05:49:35;101099.56;;;16.33;100.00
29315;BME280;16320;53.954;9.506;2023-07-13T05:52:39;101106.34;;;16.37;100.00
29315;BME280;16320;53.954;9.506;2023-07-13T05:55:45;101120.78;;;16.46;100.00
29315;BME280;16320;53.954;9.506;2023-07-13T05:58:52;101120.09;;;16.55;100.00
29315;BME280;16320;53.954;9.506;2023-07-13T06:01:57;101124.97;;;16.61;100.00
29315;BME280;16320;53.954;9.506;2023-07-13T06:05:02;101128.56;;;16.60;100.00
29315;BME280;16320;53.954;9.506;2023-07-13T06:08:07;101120.56;;;16.49;100.00
29315;BME280;16320;53.954;9.506;2023-07-13T06:11:23;101122.25;;;16.50;100.00
29315;BME280;16320;53.954;9.506;2023-07-13T06:14:29;101121.63;;;16.46;100.00
29315;BME280;16320;53.954;9.506;2023-07-13T06:17:34;101118.66;;;16.51;100.00
29315;BME280;16320;53.954;9.506;2023-07-13T06:20:38;101126.28;;;16.56;100.00
29315;BME280;16320;53.954;9.506;2023-07-13T06:23:44;101130.59;;;16.57;100.00
29315;BME280;16320;53.954;9.506;2023-07-13T06:26:48;101134.66;;;16.62;100.00
29315;BME280;16320;53.954;9.506;2023-07-13T06:29:53;101131.78;;;16.65;100.00
29315;BME280;16320;53.954;9.506;2023-07-13T06:32:58;101123.34;;;16.72;100.00
29315;BME280;16320;53.954;9.506;2023-07-13T06:36:05;101112.88;;;16.70;100.00
29315;BME280;16320;53.954;9.506;2023-07-13T06:39:10;101112.72;;;16.84;100.00
29315;BME280;16320;53.954;9.506;2023-07-13T06:42:16;101120.03;;;17.07;100.00
29315;BME280;16320;53.954;9.506;2023-07-13T06:45:21;101121.25;;;17.14;100.00
29315;BME280;16320;53.954;9.506;2023-07-13T06:48:27;101110.59;;;17.27;100.00
29315;BME280;16320;53.954;9.506;2023-07-13T06:51:32;101097.19;;;17.28;100.00
29315;BME280;16320;53.954;9.506;2023-07-13T06:54:36;101102.41;;;17.30;100.00
29315;BME280;16320;53.954;9.506;2023-07-13T06:57:41;101104.25;;;17.41;100.00
29315;BME280;16320;53.954;9.506;2023-07-13T07:00:46;101103.53;;;17.38;100.00
29315;BME280;16320;53.954;9.506;2023-07-13T07:03:51;101085.19;;;17.35;100.00
29315;BME280;16320;53.954;9.506;2023-07-13T07:06:55;101094.13;;;17.46;100.00
29315;BME280;16320;53.954;9.506;2023-07-13T07:10:03;101086.56;;;17.52;100.00
29315;BME280;16320;53.954;9.506;2023-07-13T07:13:08;101096.72;;;17.59;100.00
29315;BME280;16320;53.954;9.506;2023-07-13T07:16:12;101099.53;;;17.68;100.00
29315;BME280;16320;53.954;9.506;2023-07-13T07:19:17;101100.84;;;17.74;100.00
29315;BME280;16320;53.954;9.506;2023-07-13T07:22:22;101110.19;;;17.80;100.00
29315;BME280;16320;53.954;9.506;2023-07-13T07:25:26;101086.13;;;17.70;100.00
29315;BME280;16320;53.954;9.506;2023-07-13T07:28:31;101089.66;;;17.82;100.00
29315;BME280;16320;53.954;9.506;2023-07-13T07:31:39;101094.97;;;17.82;100.00
29315;BME280;16320;53.954;9.506;2023-07-13T07:34:48;101073.72;;;17.82;100.00
29315;BME280;16320;53.954;9.506;2023-07-13T07:37:52;101079.09;;;17.93;100.00
29315;BME280;16320;53.954;9.506;2023-07-13T07:40:56;101082.47;;;18.06;100.00
29315;BME280;16320;53.954;9.506;2023-07-13T07:44:04;101088.31;;;18.11;100.00
29315;BME280;16320;53.954;9.506;2023-07-13T07:47:11;101073.66;;;18.17;100.00
29315;BME280;16320;53.954;9.506;2023-07-13T07:50:16;101067.53;;;18.17;100.00
29315;BME280;16320;53.954;9.506;2023-07-13T07:53:20;101071.25;;;18.14;100.00
29315;BME280;16320;53.954;9.506;2023-07-13T07:56:25;101058.56;;;18.18;100.00
29315;BME280;16320;53.954;9.506;2023-07-13T07:59:33;101047.44;;;18.24;100.00
29315;BME280;16320;53.954;9.506;2023-07-13T08:02:41;101047.22;;;18.27;100.00
29315;BME280;16320;53.954;9.506;2023-07-13T08:06:06;101053.25;;;18.40;100.00
29315;BME280;16320;53.954;9.506;2023-07-13T08:09:14;101059.78;;;18.47;100.00
29315;BME280;16320;53.954;9.506;2023-07-13T08:12:18;101056.50;;;18.44;100.00
29315;BME280;16320;53.954;9.506;2023-07-13T08:15:43;101055.41;;;18.46;100.00
29315;BME280;16320;53.954;9.506;2023-07-13T08:18:47;101074.28;;;18.43;100.00
29315;BME280;16320;53.954;9.506;2023-07-13T08:21:52;101054.59;;;18.35;100.00
29315;BME280;16320;53.954;9.506;2023-07-13T08:24:56;101038.97;;;18.41;100.00
29315;BME280;16320;53.954;9.506;2023-07-13T08:28:03;101035.47;;;18.52;100.00
29315;BME280;16320;53.954;9.506;2023-07-13T08:31:08;101063.13;;;18.61;100.00
29315;BME280;16320;53.954;9.506;2023-07-13T08:34:14;101054.31;;;18.60;100.00
29315;BME280;16320;53.954;9.506;2023-07-13T08:37:21;101060.00;;;18.67;100.00
29315;BME280;16320;53.954;9.506;2023-07-13T08:40:27;101049.19;;;18.80;100.00
29315;BME280;16320;53.954;9.506;2023-07-13T08:43:36;101065.06;;;18.93;100.00
29315;BME280;16320;53.954;9.506;2023-07-13T08:46:42;101033.69;;;18.96;100.00
29315;BME280;16320;53.954;9.506;2023-07-13T08:49:50;101013.69;;;19.02;100.00
29315;BME280;16320;53.954;9.506;2023-07-13T08:52:55;101031.06;;;19.17;100.00
29315;BME280;16320;53.954;9.506;2023-07-13T08:56:01;101006.44;;;19.25;100.00
29315;BME280;16320;53.954;9.506;2023-07-13T08:59:16;101000.75;;;19.30;100.00
29315;BME280;16320;53.954;9.506;2023-07-13T09:02:48;100995.84;;;19.35;100.00
29315;BME280;16320;53.954;9.506;2023-07-13T09:05:59;100998.53;;;19.35;100.00
29315;BME280;16320;53.954;9.506;2023-07-13T09:09:26;100995.00;;;19.13;100.00
29315;BME280;16320;53.954;9.506;2023-07-13T09:16:21;101033.44;;;19.32;100.00
29315;BME280;16320;53.954;9.506;2023-07-13T09:19:32;101008.78;;;19.39;100.00
29315;BME280;16320;53.954;9.506;2023-07-13T09:22:40;100999.66;;;19.53;100.00
29315;BME280;16320;53.954;9.506;2023-07-13T09:25:51;100989.31;;;19.60;100.00
29315;BME280;16320;53.954;9.506;2023-07-13T09:29:14;100987.78;;;19.67;100.00
29315;BME280;16320;53.954;9.506;2023-07-13T09:32:22;100992.72;;;19.72;100.00
29315;BME280;16320;53.954;9.506;2023-07-13T09:35:29;100996.19;;;19.63;100.00
29315;BME280;16320;53.954;9.506;2023-07-13T09:38:35;100971.19;;;19.33;100.00
29315;BME280;16320;53.954;9.506;2023-07-13T09:42:20;100965.00;;;18.90;100.00
29315;BME280;16320;53.954;9.506;2023-07-13T09:45:32;100975.34;;;18.61;100.00
29315;BME280;16320;53.954;9.506;2023-07-13T09:48:37;100982.38;;;18.62;100.00
29315;BME280;16320;53.954;9.506;2023-07-13T09:51:42;100987.63;;;18.84;100.00
29315;BME280;16320;53.954;9.506;2023-07-13T09:54:51;101009.56;;;19.09;100.00
29315;BME280;16320;53.954;9.506;2023-07-13T09:57:58;101010.72;;;19.16;100.00
29315;BME280;16320;53.954;9.506;2023-07-13T10:01:07;101018.78;;;19.05;100.00
29315;BME280;16320;53.954;9.506;2023-07-13T10:04:17;101023.88;;;18.97;100.00
29315;BME280;16320;53.954;9.506;2023-07-13T10:07:23;101025.97;;;18.82;100.00
29315;BME280;16320;53.954;9.506;2023-07-13T10:10:34;101028.28;;;18.75;100.00
29315;BME280;16320;53.954;9.506;2023-07-13T10:13:48;101029.50;;;18.71;100.00
29315;BME280;16320;53.954;9.506;2023-07-13T10:17:01;101043.34;;;18.42;100.00
29315;BME280;16320;53.954;9.506;2023-07-13T10:20:08;101055.31;;;18.25;100.00
29315;BME280;16320;53.954;9.506;2023-07-13T10:23:31;101054.56;;;18.01;100.00
29315;BME280;16320;53.954;9.506;2023-07-13T10:26:52;101065.56;;;17.96;100.00
29315;BME280;16320;53.954;9.506;2023-07-13T10:30:17;101068.34;;;18.06;100.00
29315;BME280;16320;53.954;9.506;2023-07-13T10:33:23;101073.06;;;18.14;100.00
29315;BME280;16320;53.954;9.506;2023-07-13T10:36:45;101072.44;;;18.33;100.00
29315;BME280;16320;53.954;9.506;2023-07-13T10:39:53;101057.94;;;18.48;100.00
29315;BME280;16320;53.954;9.506;2023-07-13T10:43:03;101068.25;;;18.41;100.00
29315;BME280;16320;53.954;9.506;2023-07-13T10:46:13;101084.66;;;18.46;100.00
29315;BME280;16320;53.954;9.506;2023-07-13T10:49:19;101088.53;;;18.54;100.00
29315;BME280;16320;53.954;9.506;2023-07-13T10:52:53;101096.75;;;18.62;100.00
29315;BME280;16320;53.954;9.506;2023-07-13T10:56:01;101118.03;;;18.62;100.00
29315;BME280;16320;53.954;9.506;2023-07-13T10:59:26;101128.16;;;18.34;100.00
29315;BME280;16320;53.954;9.506;2023-07-13T11:02:31;101149.69;;;18.08;100.00
29315;BME280;16320;53.954;9.506;2023-07-13T11:05:36;101175.06;;;18.24;100.00
29315;BME280;16320;53.954;9.506;2023-07-13T11:11:56;101179.59;;;18.80;100.00
29315;BME280;16320;53.954;9.506;2023-07-13T11:15:10;101184.75;;;19.59;100.00
29315;BME280;16320;53.954;9.506;2023-07-13T11:18:24;101165.50;;;20.51;100.00
29315;BME280;16320;53.954;9.506;2023-07-13T11:21:30;101114.56;;;21.24;100.00
29315;BME280;16320;53.954;9.506;2023-07-13T11:25:02;101068.72;;;21.78;100.00
29315;BME280;16320;53.954;9.506;2023-07-13T11:28:29;101047.88;;;22.19;100.00
29315;BME280;16320;53.954;9.506;2023-07-13T11:31:35;101035.03;;;22.32;100.00
29315;BME280;16320;53.954;9.506;2023-07-13T11:34:39;101020.00;;;21.93;100.00
29315;BME280;16320;53.954;9.506;2023-07-13T11:37:45;101003.59;;;22.06;100.00
29315;BME280;16320;53.954;9.506;2023-07-13T11:40:54;101001.91;;;22.05;100.00
29315;BME280;16320;53.954;9.506;2023-07-13T11:44:33;100993.69;;;22.17;100.00
29315;BME280;16320;53.954;9.506;2023-07-13T11:47:42;101004.78;;;22.22;100.00
29315;BME280;16320;53.954;9.506;2023-07-13T11:51:26;100993.28;;;21.84;100.00
29315;BME280;16320;53.954;9.506;2023-07-13T11:54:50;101000.69;;;21.23;100.00
29315;BME280;16320;53.954;9.506;2023-07-13T11:58:01;101012.50;;;21.40;100.00
29315;BME280;16320;53.954;9.506;2023-07-13T12:01:06;101015.75;;;21.05;100.00
29315;BME280;16320;53.954;9.506;2023-07-13T12:04:31;101030.66;;;20.47;100.00
29315;BME280;16320;53.954;9.506;2023-07-13T12:07:37;101045.84;;;20.16;100.00
29315;BME280;16320;53.954;9.506;2023-07-13T12:10:42;101056.00;;;19.91;100.00
29315;BME280;16320;53.954;9.506;2023-07-13T12:13:47;101058.31;;;19.63;100.00
29315;BME280;16320;53.954;9.506;2023-07-13T12:16:52;101052.72;;;19.45;100.00
29315;BME280;16320;53.954;9.506;2023-07-13T12:19:57;101060.72;;;19.45;100.00
29315;BME280;16320;53.954;9.506;2023-07-13T12:23:10;101062.81;;;19.63;100.00
29315;BME280;16320;53.954;9.506;2023-07-13T12:26:24;101074.25;;;19.74;100.00
29315;BME280;16320;53.954;9.506;2023-07-13T12:29:28;101073.25;;;19.54;100.00
29315;BME280;16320;53.954;9.506;2023-07-13T12:32:33;101082.19;;;19.32;100.00
29315;BME280;16320;53.954;9.506;2023-07-13T12:35:56;101091.84;;;19.12;100.00
29315;BME280;16320;53.954;9.506;2023-07-13T12:45:33;101128.16;;;19.02;100.00
29315;BME280;16320;53.954;9.506;2023-07-13T12:48:39;101140.50;;;19.03;100.00
29315;BME280;16320;53.954;9.506;2023-07-13T12:52:01;101160.09;;;19.13;100.00
29315;BME280;16320;53.954;9.506;2023-07-13T12:55:16;101170.63;;;19.15;100.00
29315;BME280;16320;53.954;9.506;2023-07-13T12:58:28;101179.44;;;19.15;100.00
29315;BME280;16320;53.954;9.506;2023-07-13T13:01:35;101178.97;;;19.10;100.00
29315;BME280;16320;53.954;9.506;2023-07-13T13:04:43;101190.09;;;19.04;100.00
29315;BME280;16320;53.954;9.506;2023-07-13T13:07:48;101195.94;;;18.98;100.00
29315;BME280;16320;53.954;9.506;2023-07-13T13:10:52;101201.28;;;18.87;100.00
29315;BME280;16320;53.954;9.506;2023-07-13T13:13:57;101209.22;;;18.75;100.00
29315;BME280;16320;53.954;9.506;2023-07-13T13:17:02;101248.63;;;18.47;100.00
29315;BME280;16320;53.954;9.506;2023-07-13T13:20:20;101285.47;;;17.68;100.00
29315;BME280;16320;53.954;9.506;2023-07-13T13:23:24;101309.81;;;17.12;100.00
29315;BME280;16320;53.954;9.506;2023-07-13T13:26:29;101343.75;;;16.81;100.00
29315;BME280;16320;53.954;9.506;2023-07-13T13:29:38;101357.75;;;16.71;100.00
29315;BME280;16320;53.954;9.506;2023-07-13T13:32:46;101379.38;;;16.64;100.00
29315;BME280;16320;53.954;9.506;2023-07-13T13:35:51;101398.25;;;16.60;100.00
29315;BME280;16320;53.954;9.506;2023-07-13T13:38:56;101398.19;;;16.47;100.00
29315;BME280;16320;53.954;9.506;2023-07-13T13:42:00;101403.09;;;16.53;100.00
29315;BME280;16320;53.954;9.506;2023-07-13T13:45:08;101401.00;;;16.58;100.00
29315;BME280;16320;53.954;9.506;2023-07-13T13:48:16;101404.09;;;16.65;100.00
29315;BME280;16320;53.954;9.506;2023-07-13T13:51:23;101400.00;;;16.74;100.00
29315;BME280;16320;53.954;9.506;2023-07-13T13:54:28;101403.66;;;16.86;100.00
29315;BME280;16320;53.954;9.506;2023-07-13T13:57:33;101413.00;;;17.04;100.00
29315;BME280;16320;53.954;9.506;2023-07-13T14:00:38;101417.81;;;17.25;100.00
29315;BME280;16320;53.954;9.506;2023-07-13T14:03:47;101426.41;;;17.28;100.00
29315;BME280;16320;53.954;9.506;2023-07-13T14:06:52;101423.44;;;17.33;100.00
29315;BME280;16320;53.954;9.506;2023-07-13T14:09:58;101418.13;;;17.46;100.00
29315;BME280;16320;53.954;9.506;2023-07-13T14:13:04;101416.81;;;17.64;100.00
29315;BME280;16320;53.954;9.506;2023-07-13T14:16:18;101390.56;;;17.72;100.00
29315;BME280;16320;53.954;9.506;2023-07-13T14:19:24;101382.44;;;17.87;100.00
29315;BME280;16320;53.954;9.506;2023-07-13T14:22:29;101366.16;;;18.04;100.00
29315;BME280;16320;53.954;9.506;2023-07-13T14:25:33;101344.91;;;18.28;100.00
29315;BME280;16320;53.954;9.506;2023-07-13T14:28:43;101324.88;;;18.47;100.00
29315;BME280;16320;53.954;9.506;2023-07-13T14:31:48;101323.81;;;18.50;100.00
29315;BME280;16320;53.954;9.506;2023-07-13T14:34:53;101278.56;;;18.38;100.00
29315;BME280;16320;53.954;9.506;2023-07-13T14:38:00;101272.97;;;18.30;100.00
29315;BME280;16320;53.954;9.506;2023-07-13T14:41:04;101230.44;;;18.30;100.00
29315;BME280;16320;53.954;9.506;2023-07-13T14:44:14;101227.91;;;18.40;100.00
29315;BME280;16320;53.954;9.506;2023-07-13T14:47:19;101245.47;;;18.65;100.00
29315;BME280;16320;53.954;9.506;2023-07-13T14:50:33;101206.09;;;18.81;100.00
29315;BME280;16320;53.954;9.506;2023-07-13T14:53:39;101187.22;;;18.96;100.00
29315;BME280;16320;53.954;9.506;2023-07-13T14:56:44;101183.56;;;19.08;100.00
29315;BME280;16320;53.954;9.506;2023-07-13T14:59:48;101167.22;;;19.13;100.00
29315;BME280;16320;53.954;9.506;2023-07-13T15:02:56;101166.66;;;19.09;100.00
29315;BME280;16320;53.954;9.506;2023-07-13T15:06:02;101155.59;;;19.14;100.00
29315;BME280;16320;53.954;9.506;2023-07-13T15:09:11;101162.97;;;19.21;100.00
29315;BME280;16320;53.954;9.506;2023-07-13T15:12:16;101157.28;;;19.26;100.00
29315;BME280;16320;53.954;9.506;2023-07-13T15:15:20;101199.97;;;19.36;100.00
29315;BME280;16320;53.954;9.506;2023-07-13T15:18:29;101182.28;;;19.35;100.00
29315;BME280;16320;53.954;9.506;2023-07-13T15:21:34;101184.00;;;19.36;100.00
29315;BME280;16320;53.954;9.506;2023-07-13T15:24:39;101187.63;;;19.35;100.00
29315;BME280;16320;53.954;9.506;2023-07-13T15:27:44;101183.75;;;19.39;100.00
29315;BME280;16320;53.954;9.506;2023-07-13T15:30:49;101179.38;;;19.38;100.00
29315;BME280;16320;53.954;9.506;2023-07-13T15:33:57;101162.47;;;19.28;100.00
29315;BME280;16320;53.954;9.506;2023-07-13T15:37:03;101162.00;;;19.23;100.00
29315;BME280;16320;53.954;9.506;2023-07-13T15:40:12;101162.97;;;19.21;100.00
29315;BME280;16320;53.954;9.506;2023-07-13T15:43:18;101179.94;;;19.20;100.00
29315;BME280;16320;53.954;9.506;2023-07-13T15:46:25;101178.34;;;19.18;100.00
29315;BME280;16320;53.954;9.506;2023-07-13T15:49:30;101190.09;;;19.15;100.00
29315;BME280;16320;53.954;9.506;2023-07-13T15:52:35;101187.81;;;19.11;100.00
29315;BME280;16320;53.954;9.506;2023-07-13T15:55:39;101198.94;;;19.16;100.00
29315;BME280;16320;53.954;9.506;2023-07-13T15:58:44;101186.84;;;19.12;100.00
29315;BME280;16320;53.954;9.506;2023-07-13T16:01:49;101176.19;;;19.12;100.00
29315;BME280;16320;53.954;9.506;2023-07-13T16:04:54;101185.50;;;19.17;100.00
29315;BME280;16320;53.954;9.506;2023-07-13T16:07:59;101195.91;;;19.20;100.00
29315;BME280;16320;53.954;9.506;2023-07-13T16:11:04;101198.56;;;19.20;100.00
29315;BME280;16320;53.954;9.506;2023-07-13T16:14:13;101206.34;;;19.12;100.00
29315;BME280;16320;53.954;9.506;2023-07-13T16:17:19;101204.03;;;19.08;100.00
29315;BME280;16320;53.954;9.506;2023-07-13T16:20:25;101210.06;;;19.10;100.00
29315;BME280;16320;53.954;9.506;2023-07-13T16:23:31;101205.81;;;19.18;100.00
29315;BME280;16320;53.954;9.506;2023-07-13T16:26:37;101208.00;;;19.25;100.00